AirNav  
 
 1387 users online  

00S Mc Kenzie Bridge State Airport
Mc Kenzie Bridge, Oregon, USA

GOING TO MC KENZIE BRIDGE?


FAA INFORMATION EFFECTIVE 25 FEBRUARY 2021

Location

FAA Identifier: 00S
Lat/Long: 44-10-53.6000N 122-05-08.0000W
44-10.893333N 122-05.133333W
44.1815556,-122.0855556
(estimated)
Elevation: 1620 ft. / 494 m (estimated)
Variation: 19E (1985)
From city: 3 miles E of MC KENZIE BRIDGE, OR
Time zone: UTC -8 (UTC -7 during Daylight Saving Time)
Zip code: 97413

Airport Operations

Airport use: Open to the public
Activation date: 08/1950
Control tower: no
ARTCC: SEATTLE CENTER
FSS: MC MINNVILLE FLIGHT SERVICE STATION
NOTAMs facility: MMV (NOTAM-D service available)
Attendance: UNATNDD
Wind indicator: yes
Segmented circle: yes

Airport Communications

CTAF: 122.9

Nearby radio navigation aids

VOR radial/distance  VOR name  Freq  Var
DSDr245/33.9DESCHUTES VORTAC117.6018E

Airport Services

Parking: tiedowns
Airframe service: NONE
Powerplant service: NONE
Bottled oxygen: NONE
Bulk oxygen: NONE

Runway Information

Runway 6/24

Dimensions: 2600 x 90 ft. / 792 x 27 m
Surface: turf, in fair condition
RY 06/24 ROUGH ON EAST HALF.
Runway edge markings: RY 06 THLD MARKED WITH WHITE MATS.
RUNWAY 6  RUNWAY 24
Latitude: 44-10.847212N44-10.938790N
Longitude: 122-05.423373W122-04.842345W
Elevation: 1595.0 ft.1647.0 ft.
Traffic pattern: leftleft
Runway heading: 059 magnetic, 078 true239 magnetic, 258 true
Markings: NSTD
Runway end identifier lights: nono
Obstructions: 125 ft. trees, 1400 ft. from runway, 120 ft. left of centerline, 11:1 slope to clear144 ft. trees, 60 ft. from runway

Airport Ownership and Management from official FAA records

Ownership: Publicly-owned
Owner: OREGON DEPT OF AVIATION
3040 25TH ST, SE
SALEM, OR 97302
Phone 503-378-4880
Manager: STATE AIRPORTS MGR
3040 25TH ST, SE
SALEM, OR 97302
Phone 503-378-4880

Airport Operational Statistics

Aircraft operations: avg 33/month *
100% transient general aviation
* for 12-month period ending 15 January 2019

Additional Remarks

OWNER ADVISES CTC WITH OR DEPT OF AVIATION (503-378-4880) PRIOR TO USE.
WILDLIFE ON AND INVOF ARPT YEAR ROUND.
LAND EAST - TAKEOFF WEST.
RY 06/24 SLOPES UP TO THE EAST.
+500 FT RIDGELINE PARALLEL TO RY 1000 FT SOUTH.
ARPT CLOSED NOV 1- MAY 1.
EXPECT SIGNIFICANT TURBULENCE AND DOWNDRAFTS NEAR RY.
FOR CD CTC SEATTLE ARTCC AT 253-351-3694.

Instrument Procedures

There are no published instrument procedures at 00S.

Some nearby airports with instrument procedures:

S21 - Sunriver Airport (33 nm SE)
KBDN - Bend Municipal Airport (38 nm E)
KRDM - Roberts Field Airport (40 nm E)
77S - Hobby Field Airport (42 nm W)
KEUG - Mahlon Sweet Field Airport (49 nm W)
 
Loc | Ops | Rwys | IFR | FBO | Links
Com | Nav | Svcs | Stats | Notes
Area around 00S (Mc Kenzie Bridge State Airport)
 
Road maps at: MapQuest Bing Google
 
Aerial photo
WARNING: Photo may not be current or correct
Aerial photo of 00S (Mc Kenzie Bridge State Airport)
Photo by Clif Cox
Photo taken 26-May-2007

Do you have a better or more recent aerial photo of Mc Kenzie Bridge State Airport that you would like to share? If so, please send us your photo.

 
Sectional chart

 
Airport distance calculator
Flying to Mc Kenzie Bridge State Airport? Find the distance to fly.

From to 00S

Sunrise and sunset
Times for 05-Mar-2021
 Local
(UTC-8)
 Zulu
(UTC)
Morning civil twilight06:1014:10
Sunrise06:3914:39
Sunset18:0002:00
Evening civil twilight18:2902:29

Current date and time
Zulu (UTC)  05-Mar-2021 20:23:28
Local (UTC-8)  05-Mar-2021 12:23:28
 
METAR
KS21 
33nm SE 
051955Z AUTO 20014G21KT 10SM OVC060 09/M05 A2997 RMK AO2
KBDN 
38nm E 
051955Z AUTO 18022G30KT 10SM CLR 15/M06 A2994 RMK AO2
KRDM 
40nm E 
051956Z 19018G27KT 10SM FEW085 17/M06 A2991 RMK AO2 PK WND 19028/1902 SLP118 T01671056
K77S 
42nm W 
051955Z AUTO 00000KT 3SM BR BKN027 OVC034 09/09 A3004 RMK A01 P0015
KEUG 
49nm W 
051954Z 21006KT 8SM -RA SCT020 BKN028 OVC050 09/07 A3005 RMK AO2 SLP176 P0004 T00890067
TAF
KBDN 
38nm E 
051739Z 0518/0618 18015G24KT P6SM BKN080 OVC250 WS020/19050KT FM052100 21016G27KT P6SM OVC080 FM060100 26010G15KT P6SM -SHRA BKN060 OVC080 FM060500 27008KT 6SM -SHSNRA OVC030
KRDM 
40nm E 
051120Z 0512/0612 18016G28KT P6SM BKN250 WS020/18050KT FM052100 20016G24KT P6SM BKN100 BKN200 FM060100 28010KT P6SM -SHRA BKN060 OVC080 FM060500 31008KT 6SM -SHSNRA OVC030
NOTAMs
Click for the latest NOTAMs
NOTAMs are issued by the DoD/FAA and will open in a separate window not controlled by AirNav.

 

 
 

Would you like to see your business listed on this page?

 If your business provides an interesting product or service to pilots, flight crews, aircraft, or users of the Mc Kenzie Bridge State Airport, you should consider listing it here.  To start the listing process, click on the button below
 
Add a business
 

Other Pages about Mc Kenzie Bridge State Airport

www.oregon.gov/...
 
Update a link
 
Copyright © AirNav, LLC. All rights reserved. Privacy Policy  Contact